sensor_id;sensor_type;location;lat;lon;timestamp;pressure;altitude;pressure_sealevel;temperature;humidity
23281;BME280;11809;56.390;-3.266;2022-09-17T00:01:05;101932.97;;;15.11;59.39
23281;BME280;11809;56.390;-3.266;2022-09-17T00:03:34;101938.22;;;15.13;59.48
23281;BME280;11809;56.390;-3.266;2022-09-17T00:06:03;101940.84;;;15.13;59.24
23281;BME280;11809;56.390;-3.266;2022-09-17T00:08:33;101944.41;;;15.12;59.42
23281;BME280;11809;56.390;-3.266;2022-09-17T00:11:20;101947.94;;;15.12;59.33
23281;BME280;11809;56.390;-3.266;2022-09-17T00:13:48;101952.34;;;15.12;59.38
23281;BME280;11809;56.390;-3.266;2022-09-17T00:16:26;101942.75;;;15.09;59.40
23281;BME280;11809;56.390;-3.266;2022-09-17T00:18:54;101943.69;;;15.08;59.48
23281;BME280;11809;56.390;-3.266;2022-09-17T00:21:21;101948.97;;;15.08;59.54
23281;BME280;11809;56.390;-3.266;2022-09-17T00:23:52;101942.75;;;15.09;59.33
23281;BME280;11809;56.390;-3.266;2022-09-17T00:26:20;101936.66;;;15.07;59.56
23281;BME280;11809;56.390;-3.266;2022-09-17T00:28:51;101940.22;;;15.06;59.56
23281;BME280;11809;56.390;-3.266;2022-09-17T00:31:19;101938.50;;;15.05;59.50
23281;BME280;11809;56.390;-3.266;2022-09-17T00:33:47;101935.84;;;15.05;59.68
23281;BME280;11809;56.390;-3.266;2022-09-17T00:36:14;101929.78;;;15.03;59.75
23281;BME280;11809;56.390;-3.266;2022-09-17T00:38:41;101926.19;;;15.04;59.75
23281;BME280;11809;56.390;-3.266;2022-09-17T00:41:09;101933.09;;;15.08;59.51
23281;BME280;11809;56.390;-3.266;2022-09-17T00:43:37;101925.09;;;15.10;59.86
23281;BME280;11809;56.390;-3.266;2022-09-17T00:46:12;101923.50;;;15.06;59.77
23281;BME280;11809;56.390;-3.266;2022-09-17T00:48:43;101920.00;;;15.04;59.76
23281;BME280;11809;56.390;-3.266;2022-09-17T00:51:14;101921.75;;;15.05;59.82
23281;BME280;11809;56.390;-3.266;2022-09-17T00:53:43;101916.53;;;15.03;59.50
23281;BME280;11809;56.390;-3.266;2022-09-17T00:56:27;101919.09;;;15.05;59.74
23281;BME280;11809;56.390;-3.266;2022-09-17T00:58:55;101919.97;;;15.05;59.61
23281;BME280;11809;56.390;-3.266;2022-09-17T01:01:22;101915.66;;;15.03;59.72
23281;BME280;11809;56.390;-3.266;2022-09-17T01:03:49;101916.38;;;15.06;59.53
23281;BME280;11809;56.390;-3.266;2022-09-17T01:06:41;101919.19;;;15.03;59.87
23281;BME280;11809;56.390;-3.266;2022-09-17T01:12:38;101917.47;;;15.01;59.77
23281;BME280;11809;56.390;-3.266;2022-09-17T01:20:18;101914.00;;;15.00;59.86
23281;BME280;11809;56.390;-3.266;2022-09-17T01:47:47;101901.56;;;15.02;59.65
23281;BME280;11809;56.390;-3.266;2022-09-17T01:50:21;101905.13;;;15.01;59.82
23281;BME280;11809;56.390;-3.266;2022-09-17T01:52:53;101896.25;;;15.02;59.83
23281;BME280;11809;56.390;-3.266;2022-09-17T01:55:26;101900.69;;;15.02;59.86
23281;BME280;11809;56.390;-3.266;2022-09-17T01:58:00;101900.69;;;15.02;59.65
23281;BME280;11809;56.390;-3.266;2022-09-17T02:00:29;101901.56;;;15.02;59.89
23281;BME280;11809;56.390;-3.266;2022-09-17T02:03:04;101906.84;;;15.02;59.71
23281;BME280;11809;56.390;-3.266;2022-09-17T02:05:38;101901.56;;;15.02;59.76
23281;BME280;11809;56.390;-3.266;2022-09-17T02:08:23;101903.34;;;15.02;59.95
23281;BME280;11809;56.390;-3.266;2022-09-17T02:10:58;101902.41;;;15.03;59.68
23281;BME280;11809;56.390;-3.266;2022-09-17T02:16:13;101894.53;;;15.01;59.89
23281;BME280;11809;56.390;-3.266;2022-09-17T02:19:04;101886.56;;;15.01;60.07
23281;BME280;11809;56.390;-3.266;2022-09-17T02:21:45;101895.38;;;15.02;59.88
23281;BME280;11809;56.390;-3.266;2022-09-17T02:24:22;101884.88;;;15.00;59.89
23281;BME280;11809;56.390;-3.266;2022-09-17T02:26:58;101884.81;;;15.02;60.01
23281;BME280;11809;56.390;-3.266;2022-09-17T02:29:32;101877.91;;;14.98;59.85
23281;BME280;11809;56.390;-3.266;2022-09-17T02:32:00;101884.03;;;14.98;59.97
23281;BME280;11809;56.390;-3.266;2022-09-17T02:34:28;101889.22;;;15.01;59.93
23281;BME280;11809;56.390;-3.266;2022-09-17T02:36:56;101897.16;;;15.01;60.14
23281;BME280;11809;56.390;-3.266;2022-09-17T02:39:27;101887.53;;;15.00;59.88
23281;BME280;11809;56.390;-3.266;2022-09-17T02:53:44;101888.50;;;14.98;59.87
23281;BME280;11809;56.390;-3.266;2022-09-17T02:56:35;101891.19;;;14.96;59.83
23281;BME280;11809;56.390;-3.266;2022-09-17T03:01:45;101881.53;;;14.95;60.03
23281;BME280;11809;56.390;-3.266;2022-09-17T03:04:15;101882.38;;;14.96;60.08
23281;BME280;11809;56.390;-3.266;2022-09-17T03:06:45;101873.59;;;14.95;60.15
23281;BME280;11809;56.390;-3.266;2022-09-17T03:09:14;101873.66;;;14.94;60.17
23281;BME280;11809;56.390;-3.266;2022-09-17T03:11:41;101876.25;;;14.95;59.92
23281;BME280;11809;56.390;-3.266;2022-09-17T03:14:08;101877.16;;;14.94;60.11
23281;BME280;11809;56.390;-3.266;2022-09-17T03:16:35;101878.03;;;14.95;60.01
23281;BME280;11809;56.390;-3.266;2022-09-17T03:19:02;101871.97;;;14.91;59.92
23281;BME280;11809;56.390;-3.266;2022-09-17T03:21:29;101876.28;;;14.94;60.18
23281;BME280;11809;56.390;-3.266;2022-09-17T03:23:56;101882.44;;;14.94;59.98
23281;BME280;11809;56.390;-3.266;2022-09-17T03:26:25;101878.03;;;14.95;60.16
23281;BME280;11809;56.390;-3.266;2022-09-17T03:28:53;101880.72;;;14.93;60.10
23281;BME280;11809;56.390;-3.266;2022-09-17T03:31:20;101879.00;;;14.92;60.14
23281;BME280;11809;56.390;-3.266;2022-09-17T03:33:47;101874.59;;;14.93;60.05
23281;BME280;11809;56.390;-3.266;2022-09-17T03:36:14;101862.31;;;14.90;59.98
23281;BME280;11809;56.390;-3.266;2022-09-17T03:38:41;101864.16;;;14.88;60.11
23281;BME280;11809;56.390;-3.266;2022-09-17T03:41:08;101871.19;;;14.89;60.16
23281;BME280;11809;56.390;-3.266;2022-09-17T03:43:35;101864.94;;;14.90;60.13
23281;BME280;11809;56.390;-3.266;2022-09-17T03:46:02;101864.13;;;14.90;60.20
23281;BME280;11809;56.390;-3.266;2022-09-17T03:48:29;101871.22;;;14.88;60.03
23281;BME280;11809;56.390;-3.266;2022-09-17T03:50:56;101872.09;;;14.88;60.04
23281;BME280;11809;56.390;-3.266;2022-09-17T03:53:22;101867.78;;;14.86;60.17
23281;BME280;11809;56.390;-3.266;2022-09-17T03:55:49;101874.81;;;14.87;60.19
23281;BME280;11809;56.390;-3.266;2022-09-17T03:58:16;101880.97;;;14.87;60.13
23281;BME280;11809;56.390;-3.266;2022-09-17T04:00:43;101890.69;;;14.87;60.07
23281;BME280;11809;56.390;-3.266;2022-09-17T04:03:10;101882.69;;;14.88;60.00
23281;BME280;11809;56.390;-3.266;2022-09-17T04:05:37;101893.25;;;14.88;60.00
23281;BME280;11809;56.390;-3.266;2022-09-17T04:08:04;101894.13;;;14.89;60.08
23281;BME280;11809;56.390;-3.266;2022-09-17T04:10:31;101889.75;;;14.88;59.92
23281;BME280;11809;56.390;-3.266;2022-09-17T04:12:58;101892.41;;;14.88;59.87
23281;BME280;11809;56.390;-3.266;2022-09-17T04:15:25;101888.91;;;14.87;60.31
23281;BME280;11809;56.390;-3.266;2022-09-17T04:17:56;101894.22;;;14.87;59.98
23281;BME280;11809;56.390;-3.266;2022-09-17T04:20:26;101889.81;;;14.86;60.05
23281;BME280;11809;56.390;-3.266;2022-09-17T04:22:53;101895.13;;;14.86;59.98
23281;BME280;11809;56.390;-3.266;2022-09-17T04:25:20;101896.03;;;14.85;60.15
23281;BME280;11809;56.390;-3.266;2022-09-17T04:27:47;101893.38;;;14.85;60.11
23281;BME280;11809;56.390;-3.266;2022-09-17T04:30:14;101894.31;;;14.84;60.25
23281;BME280;11809;56.390;-3.266;2022-09-17T04:32:44;101901.31;;;14.85;60.14
23281;BME280;11809;56.390;-3.266;2022-09-17T04:35:11;101889.94;;;14.83;60.23
23281;BME280;11809;56.390;-3.266;2022-09-17T04:37:38;101896.16;;;14.82;60.15
23281;BME280;11809;56.390;-3.266;2022-09-17T04:40:06;101898.81;;;14.82;60.12
23281;BME280;11809;56.390;-3.266;2022-09-17T04:42:33;101906.69;;;14.84;60.13
23281;BME280;11809;56.390;-3.266;2022-09-17T04:45:00;101896.09;;;14.84;60.05
23281;BME280;11809;56.390;-3.266;2022-09-17T04:47:27;101892.59;;;14.83;60.29
23281;BME280;11809;56.390;-3.266;2022-09-17T04:49:54;101898.75;;;14.84;60.25
23281;BME280;11809;56.390;-3.266;2022-09-17T04:52:21;101901.38;;;14.84;60.12
23281;BME280;11809;56.390;-3.266;2022-09-17T04:54:47;101896.97;;;14.84;60.22
23281;BME280;11809;56.390;-3.266;2022-09-17T04:57:14;101907.56;;;14.84;60.31
23281;BME280;11809;56.390;-3.266;2022-09-17T04:59:41;101895.22;;;14.83;60.23
23281;BME280;11809;56.390;-3.266;2022-09-17T05:02:08;101897.88;;;14.83;60.36
23281;BME280;11809;56.390;-3.266;2022-09-17T05:04:35;101890.91;;;14.81;59.93
23281;BME280;11809;56.390;-3.266;2022-09-17T05:07:02;101889.13;;;14.81;60.10
23281;BME280;11809;56.390;-3.266;2022-09-17T05:09:29;101890.91;;;14.81;60.38
23281;BME280;11809;56.390;-3.266;2022-09-17T05:11:56;101885.59;;;14.82;60.05
23281;BME280;11809;56.390;-3.266;2022-09-17T05:14:22;101891.78;;;14.81;60.38
23281;BME280;11809;56.390;-3.266;2022-09-17T05:16:49;101888.28;;;14.81;60.13
23281;BME280;11809;56.390;-3.266;2022-09-17T05:19:16;101882.97;;;14.81;60.27
23281;BME280;11809;56.390;-3.266;2022-09-17T05:21:43;101877.75;;;14.79;60.36
23281;BME280;11809;56.390;-3.266;2022-09-17T05:24:10;101876.88;;;14.79;60.19
23281;BME280;11809;56.390;-3.266;2022-09-17T05:26:37;101880.41;;;14.79;60.46
23281;BME280;11809;56.390;-3.266;2022-09-17T05:29:03;101871.59;;;14.79;60.24
23281;BME280;11809;56.390;-3.266;2022-09-17T05:31:30;101876.94;;;14.77;60.40
23281;BME280;11809;56.390;-3.266;2022-09-17T05:33:57;101881.41;;;14.75;60.25
23281;BME280;11809;56.390;-3.266;2022-09-17T05:36:24;101877.88;;;14.76;60.43
23281;BME280;11809;56.390;-3.266;2022-09-17T05:38:51;101873.44;;;14.77;60.41
23281;BME280;11809;56.390;-3.266;2022-09-17T05:41:18;101870.72;;;14.78;60.20
23281;BME280;11809;56.390;-3.266;2022-09-17T05:43:45;101876.81;;;14.80;60.79
23281;BME280;11809;56.390;-3.266;2022-09-17T05:46:12;101870.63;;;14.81;60.86
23281;BME280;11809;56.390;-3.266;2022-09-17T05:48:39;101869.75;;;14.81;60.75
23281;BME280;11809;56.390;-3.266;2022-09-17T05:51:05;101880.34;;;14.81;60.93
23281;BME280;11809;56.390;-3.266;2022-09-17T05:53:32;101865.31;;;14.81;60.86
23281;BME280;11809;56.390;-3.266;2022-09-17T05:55:59;101875.00;;;14.82;60.74
23281;BME280;11809;56.390;-3.266;2022-09-17T05:58:26;101868.75;;;14.83;60.78
23281;BME280;11809;56.390;-3.266;2022-09-17T06:00:54;101863.53;;;14.82;60.99
23281;BME280;11809;56.390;-3.266;2022-09-17T06:03:21;101867.06;;;14.82;60.89
23281;BME280;11809;56.390;-3.266;2022-09-17T06:05:57;101858.25;;;14.82;61.24
23281;BME280;11809;56.390;-3.266;2022-09-17T06:08:25;101866.91;;;14.85;60.98
23281;BME280;11809;56.390;-3.266;2022-09-17T06:10:53;101866.06;;;14.85;61.06
23281;BME280;11809;56.390;-3.266;2022-09-17T06:13:25;101857.19;;;14.86;61.19
23281;BME280;11809;56.390;-3.266;2022-09-17T06:15:52;101856.31;;;14.85;61.23
23281;BME280;11809;56.390;-3.266;2022-09-17T06:18:20;101854.50;;;14.87;61.37
23281;BME280;11809;56.390;-3.266;2022-09-17T06:20:58;101858.94;;;14.87;61.28
23281;BME280;11809;56.390;-3.266;2022-09-17T06:23:25;101861.50;;;14.88;61.05
23281;BME280;11809;56.390;-3.266;2022-09-17T06:25:55;101860.53;;;14.91;61.55
23281;BME280;11809;56.390;-3.266;2022-09-17T06:28:23;101869.28;;;14.93;61.52
23281;BME280;11809;56.390;-3.266;2022-09-17T06:30:50;101863.06;;;14.94;61.62
23281;BME280;11809;56.390;-3.266;2022-09-17T06:33:22;101870.13;;;14.93;61.41
23281;BME280;11809;56.390;-3.266;2022-09-17T06:35:56;101868.31;;;14.95;61.19
23281;BME280;11809;56.390;-3.266;2022-09-17T06:38:23;101869.09;;;14.97;61.35
23281;BME280;11809;56.390;-3.266;2022-09-17T06:40:53;101863.75;;;14.99;61.09
23281;BME280;11809;56.390;-3.266;2022-09-17T06:43:20;101869.81;;;15.01;61.40
23281;BME280;11809;56.390;-3.266;2022-09-17T06:46:05;101869.78;;;15.02;61.36
23281;BME280;11809;56.390;-3.266;2022-09-17T06:48:36;101873.22;;;15.04;61.40
23281;BME280;11809;56.390;-3.266;2022-09-17T06:51:05;101870.53;;;15.06;61.17
23281;BME280;11809;56.390;-3.266;2022-09-17T06:53:33;101860.78;;;15.06;61.24
23281;BME280;11809;56.390;-3.266;2022-09-17T06:56:04;101873.00;;;15.10;61.17
23281;BME280;11809;56.390;-3.266;2022-09-17T06:58:33;101874.72;;;15.11;61.16
23281;BME280;11809;56.390;-3.266;2022-09-17T07:01:03;101876.44;;;15.12;60.81
23281;BME280;11809;56.390;-3.266;2022-09-17T07:03:31;101869.28;;;15.14;60.90
23281;BME280;11809;56.390;-3.266;2022-09-17T07:05:59;101865.72;;;15.15;60.92
23281;BME280;11809;56.390;-3.266;2022-09-17T07:08:26;101871.03;;;15.15;60.92
23281;BME280;11809;56.390;-3.266;2022-09-17T07:10:56;101863.88;;;15.17;60.90
23281;BME280;11809;56.390;-3.266;2022-09-17T07:13:24;101871.78;;;15.19;60.92
23281;BME280;11809;56.390;-3.266;2022-09-17T07:15:55;101861.13;;;15.21;61.00
23281;BME280;11809;56.390;-3.266;2022-09-17T07:18:23;101857.59;;;15.20;60.89
23281;BME280;11809;56.390;-3.266;2022-09-17T07:20:52;101857.47;;;15.23;60.96
23281;BME280;11809;56.390;-3.266;2022-09-17T07:23:25;101860.09;;;15.25;60.81
23281;BME280;11809;56.390;-3.266;2022-09-17T07:25:54;101854.91;;;15.22;60.75
23281;BME280;11809;56.390;-3.266;2022-09-17T07:28:22;101853.06;;;15.24;60.87
23281;BME280;11809;56.390;-3.266;2022-09-17T07:30:50;101855.56;;;15.27;60.88
23281;BME280;11809;56.390;-3.266;2022-09-17T07:33:22;101861.66;;;15.29;60.48
23281;BME280;11809;56.390;-3.266;2022-09-17T07:35:53;101859.81;;;15.31;60.65
23281;BME280;11809;56.390;-3.266;2022-09-17T07:38:21;101859.69;;;15.34;60.93
23281;BME280;11809;56.390;-3.266;2022-09-17T07:40:57;101855.34;;;15.33;60.67
23281;BME280;11809;56.390;-3.266;2022-09-17T07:43:25;101861.53;;;15.32;60.35
23281;BME280;11809;56.390;-3.266;2022-09-17T07:45:53;101860.47;;;15.36;60.37
23281;BME280;11809;56.390;-3.266;2022-09-17T07:48:20;101862.41;;;15.32;59.57
23281;BME280;11809;56.390;-3.266;2022-09-17T07:50:47;101861.53;;;15.32;60.16
23281;BME280;11809;56.390;-3.266;2022-09-17T07:53:14;101865.00;;;15.34;60.57
23281;BME280;11809;56.390;-3.266;2022-09-17T07:55:42;101865.00;;;15.34;60.47
23281;BME280;11809;56.390;-3.266;2022-09-17T07:58:08;101879.03;;;15.36;60.61
23281;BME280;11809;56.390;-3.266;2022-09-17T08:00:35;101873.59;;;15.39;60.52
23281;BME280;11809;56.390;-3.266;2022-09-17T08:03:02;101871.78;;;15.41;60.57
23281;BME280;11809;56.390;-3.266;2022-09-17T08:05:31;101866.34;;;15.44;60.52
23281;BME280;11809;56.390;-3.266;2022-09-17T08:07:58;101872.50;;;15.44;60.63
23281;BME280;11809;56.390;-3.266;2022-09-17T08:10:25;101876.88;;;15.45;60.67
23281;BME280;11809;56.390;-3.266;2022-09-17T08:12:56;101875.13;;;15.46;60.70
23281;BME280;11809;56.390;-3.266;2022-09-17T08:15:24;101876.25;;;15.39;60.61
23281;BME280;11809;56.390;-3.266;2022-09-17T08:17:51;101873.59;;;15.39;60.34
23281;BME280;11809;56.390;-3.266;2022-09-17T08:20:19;101868.28;;;15.40;60.50
23281;BME280;11809;56.390;-3.266;2022-09-17T08:22:46;101875.28;;;15.41;60.84
23281;BME280;11809;56.390;-3.266;2022-09-17T08:25:15;101872.50;;;15.46;60.72
23281;BME280;11809;56.390;-3.266;2022-09-17T08:27:42;101874.28;;;15.44;59.84
23281;BME280;11809;56.390;-3.266;2022-09-17T08:30:10;101870.91;;;15.40;59.46
23281;BME280;11809;56.390;-3.266;2022-09-17T08:32:37;101868.97;;;15.44;59.99
23281;BME280;11809;56.390;-3.266;2022-09-17T08:35:04;101861.91;;;15.44;60.13
23281;BME280;11809;56.390;-3.266;2022-09-17T08:37:31;101866.34;;;15.44;60.19
23281;BME280;11809;56.390;-3.266;2022-09-17T08:39:59;101870.03;;;15.40;60.00
23281;BME280;11809;56.390;-3.266;2022-09-17T08:42:55;101875.59;;;15.34;60.14
23281;BME280;11809;56.390;-3.266;2022-09-17T08:45:26;101875.69;;;15.31;60.19
23281;BME280;11809;56.390;-3.266;2022-09-17T08:48:02;101867.84;;;15.29;60.47
23281;BME280;11809;56.390;-3.266;2022-09-17T08:50:33;101868.69;;;15.30;60.43
23281;BME280;11809;56.390;-3.266;2022-09-17T08:53:30;101867.03;;;15.27;60.41
23281;BME280;11809;56.390;-3.266;2022-09-17T08:59:06;101868.69;;;15.30;60.27
23281;BME280;11809;56.390;-3.266;2022-09-17T09:01:48;101863.41;;;15.30;60.37
23281;BME280;11809;56.390;-3.266;2022-09-17T09:05:30;101869.63;;;15.29;60.62
23281;BME280;11809;56.390;-3.266;2022-09-17T09:07:54;101860.78;;;15.28;60.62
23281;BME280;11809;56.390;-3.266;2022-09-17T09:10:25;101866.09;;;15.28;60.56
23281;BME280;11809;56.390;-3.266;2022-09-17T09:12:53;101870.53;;;15.28;60.75
23281;BME280;11809;56.390;-3.266;2022-09-17T09:18:00;101868.69;;;15.30;60.75
23281;BME280;11809;56.390;-3.266;2022-09-17T09:20:44;101865.22;;;15.28;60.77
23281;BME280;11809;56.390;-3.266;2022-09-17T09:26:19;101857.28;;;15.28;60.73
23281;BME280;11809;56.390;-3.266;2022-09-17T09:29:15;101852.94;;;15.27;60.78
23281;BME280;11809;56.390;-3.266;2022-09-17T09:34:28;101861.66;;;15.29;60.99
23281;BME280;11809;56.390;-3.266;2022-09-17T09:39:40;101864.50;;;15.24;60.96
23281;BME280;11809;56.390;-3.266;2022-09-17T09:42:33;101860.09;;;15.25;60.84
23281;BME280;11809;56.390;-3.266;2022-09-17T09:45:11;101858.47;;;15.21;60.75
23281;BME280;11809;56.390;-3.266;2022-09-17T09:48:07;101867.19;;;15.23;60.81
23281;BME280;11809;56.390;-3.266;2022-09-17T09:57:09;101863.75;;;15.21;61.20
23281;BME280;11809;56.390;-3.266;2022-09-17T09:59:38;101859.38;;;15.19;61.07
23281;BME280;11809;56.390;-3.266;2022-09-17T10:02:07;101864.63;;;15.21;60.84
23281;BME280;11809;56.390;-3.266;2022-09-17T10:04:34;101871.78;;;15.19;60.87
23281;BME280;11809;56.390;-3.266;2022-09-17T10:09:33;101870.69;;;15.25;59.75
23281;BME280;11809;56.390;-3.266;2022-09-17T10:14:38;101867.88;;;15.28;60.59
23281;BME280;11809;56.390;-3.266;2022-09-17T10:17:21;101865.09;;;15.31;60.46
23281;BME280;11809;56.390;-3.266;2022-09-17T10:22:32;101865.06;;;15.32;60.61
23281;BME280;11809;56.390;-3.266;2022-09-17T10:25:01;101864.88;;;15.37;60.65
23281;BME280;11809;56.390;-3.266;2022-09-17T10:27:29;101863.00;;;15.39;60.67
23281;BME280;11809;56.390;-3.266;2022-09-17T10:32:34;101856.59;;;15.44;61.04
23281;BME280;11809;56.390;-3.266;2022-09-17T10:37:42;101853.88;;;15.47;60.92
23281;BME280;11809;56.390;-3.266;2022-09-17T10:42:47;101856.41;;;15.50;61.05
23281;BME280;11809;56.390;-3.266;2022-09-17T10:45:29;101849.25;;;15.52;61.08
23281;BME280;11809;56.390;-3.266;2022-09-17T10:47:58;101850.09;;;15.53;61.31
23281;BME280;11809;56.390;-3.266;2022-09-17T10:50:28;101845.81;;;15.50;59.92
23281;BME280;11809;56.390;-3.266;2022-09-17T10:53:01;101838.63;;;15.52;60.40
23281;BME280;11809;56.390;-3.266;2022-09-17T10:56:01;101843.91;;;15.54;60.03
23281;BME280;11809;56.390;-3.266;2022-09-17T10:58:46;101835.06;;;15.53;60.85
23281;BME280;11809;56.390;-3.266;2022-09-17T11:12:44;101829.31;;;15.64;61.62
23281;BME280;11809;56.390;-3.266;2022-09-17T11:21:25;101823.69;;;15.71;61.48
23281;BME280;11809;56.390;-3.266;2022-09-17T11:35:13;101820.84;;;15.76;61.13
23281;BME280;11809;56.390;-3.266;2022-09-17T11:40:49;101813.72;;;15.78;61.53
23281;BME280;11809;56.390;-3.266;2022-09-17T11:43:25;101810.09;;;15.79;61.43
23281;BME280;11809;56.390;-3.266;2022-09-17T11:48:37;101806.41;;;15.83;61.06
23281;BME280;11809;56.390;-3.266;2022-09-17T11:56:40;101799.25;;;15.85;61.17
23281;BME280;11809;56.390;-3.266;2022-09-17T12:02:01;101793.94;;;15.85;61.17
23281;BME280;11809;56.390;-3.266;2022-09-17T12:04:41;101798.25;;;15.88;61.13
23281;BME280;11809;56.390;-3.266;2022-09-17T12:10:40;101790.22;;;15.89;61.24
23281;BME280;11809;56.390;-3.266;2022-09-17T12:15:38;101788.50;;;15.88;61.37
23281;BME280;11809;56.390;-3.266;2022-09-17T12:18:23;101785.00;;;15.88;61.28
23281;BME280;11809;56.390;-3.266;2022-09-17T12:20:59;101782.28;;;15.89;61.49
23281;BME280;11809;56.390;-3.266;2022-09-17T12:23:37;101777.91;;;15.88;61.31
23281;BME280;11809;56.390;-3.266;2022-09-17T12:26:43;101776.78;;;15.94;61.48
23281;BME280;11809;56.390;-3.266;2022-09-17T12:29:35;101775.78;;;15.96;61.66
23281;BME280;11809;56.390;-3.266;2022-09-17T12:35:21;101785.38;;;15.99;61.72
23281;BME280;11809;56.390;-3.266;2022-09-17T12:49:38;101786.53;;;15.93;61.46
23281;BME280;11809;56.390;-3.266;2022-09-17T12:55:20;101780.97;;;15.99;61.86
23281;BME280;11809;56.390;-3.266;2022-09-17T12:58:22;101770.34;;;15.99;61.28
23281;BME280;11809;56.390;-3.266;2022-09-17T13:01:06;101771.19;;;16.00;61.27
23281;BME280;11809;56.390;-3.266;2022-09-17T13:03:42;101775.66;;;15.99;61.34
23281;BME280;11809;56.390;-3.266;2022-09-17T13:06:35;101774.69;;;16.00;61.30
23281;BME280;11809;56.390;-3.266;2022-09-17T13:14:59;101775.50;;;16.02;60.96
23281;BME280;11809;56.390;-3.266;2022-09-17T13:20:15;101769.34;;;16.02;60.77
23281;BME280;11809;56.390;-3.266;2022-09-17T13:22:49;101772.91;;;16.01;60.91
23281;BME280;11809;56.390;-3.266;2022-09-17T13:25:19;101768.53;;;16.00;60.81
23281;BME280;11809;56.390;-3.266;2022-09-17T13:27:48;101766.69;;;16.02;60.74
23281;BME280;11809;56.390;-3.266;2022-09-17T13:30:17;101757.75;;;16.04;60.73
23281;BME280;11809;56.390;-3.266;2022-09-17T13:32:46;101761.19;;;16.06;60.76
23281;BME280;11809;56.390;-3.266;2022-09-17T13:37:57;101759.97;;;16.13;60.90
23281;BME280;11809;56.390;-3.266;2022-09-17T13:40:33;101758.91;;;16.17;60.63
23281;BME280;11809;56.390;-3.266;2022-09-17T13:48:31;101740.34;;;16.36;60.93
23281;BME280;11809;56.390;-3.266;2022-09-17T13:54:01;101739.84;;;16.47;60.22
23281;BME280;11809;56.390;-3.266;2022-09-17T13:56:42;101741.41;;;16.51;60.21
23281;BME280;11809;56.390;-3.266;2022-09-17T13:59:18;101736.78;;;16.56;60.01
23281;BME280;11809;56.390;-3.266;2022-09-17T14:04:32;101745.31;;;16.62;59.68
23281;BME280;11809;56.390;-3.266;2022-09-17T14:06:59;101743.31;;;16.67;59.57
23281;BME280;11809;56.390;-3.266;2022-09-17T14:09:31;101738.72;;;16.71;59.40
23281;BME280;11809;56.390;-3.266;2022-09-17T14:13:16;101747.47;;;16.73;59.06
23281;BME280;11809;56.390;-3.266;2022-09-17T14:15:36;101737.56;;;16.76;59.02
23281;BME280;11809;56.390;-3.266;2022-09-17T14:21:21;101733.38;;;16.89;58.77
23281;BME280;11809;56.390;-3.266;2022-09-17T14:23:55;101722.59;;;16.92;58.63
23281;BME280;11809;56.390;-3.266;2022-09-17T14:32:17;101721.06;;;17.06;58.69
23281;BME280;11809;56.390;-3.266;2022-09-17T14:34:48;101722.72;;;17.08;58.42
23281;BME280;11809;56.390;-3.266;2022-09-17T14:37:18;101716.28;;;17.12;58.19
23281;BME280;11809;56.390;-3.266;2022-09-17T14:39:47;101716.13;;;17.15;58.38
23281;BME280;11809;56.390;-3.266;2022-09-17T14:42:25;101718.66;;;17.18;58.23
23281;BME280;11809;56.390;-3.266;2022-09-17T14:44:59;101714.09;;;17.20;58.11
23281;BME280;11809;56.390;-3.266;2022-09-17T14:47:28;101713.19;;;17.21;58.16
23281;BME280;11809;56.390;-3.266;2022-09-17T14:50:24;101711.16;;;17.26;57.99
23281;BME280;11809;56.390;-3.266;2022-09-17T14:52:52;101715.59;;;17.26;57.94
23281;BME280;11809;56.390;-3.266;2022-09-17T14:55:23;101715.75;;;17.23;57.83
23281;BME280;11809;56.390;-3.266;2022-09-17T14:57:57;101729.13;;;17.21;57.95
23281;BME280;11809;56.390;-3.266;2022-09-17T15:00:32;101719.41;;;17.20;57.87
23281;BME280;11809;56.390;-3.266;2022-09-17T15:03:01;101716.75;;;17.20;57.92
23281;BME280;11809;56.390;-3.266;2022-09-17T15:13:24;101714.66;;;17.44;57.53
23281;BME280;11809;56.390;-3.266;2022-09-17T15:16:13;101712.44;;;17.52;57.52
23281;BME280;11809;56.390;-3.266;2022-09-17T15:18:53;101711.16;;;17.61;57.26
23281;BME280;11809;56.390;-3.266;2022-09-17T15:21:33;101705.53;;;17.67;57.32
23281;BME280;11809;56.390;-3.266;2022-09-17T15:27:10;101695.97;;;17.80;56.61
23281;BME280;11809;56.390;-3.266;2022-09-17T15:29:41;101695.59;;;17.86;56.46
23281;BME280;11809;56.390;-3.266;2022-09-17T15:32:12;101692.63;;;17.92;56.52
23281;BME280;11809;56.390;-3.266;2022-09-17T15:34:40;101694.97;;;17.98;56.44
23281;BME280;11809;56.390;-3.266;2022-09-17T15:37:17;101683.13;;;18.03;56.07
23281;BME280;11809;56.390;-3.266;2022-09-17T15:39:49;101689.16;;;18.07;56.00
23281;BME280;11809;56.390;-3.266;2022-09-17T15:42:21;101681.94;;;18.09;56.22
23281;BME280;11809;56.390;-3.266;2022-09-17T15:44:49;101684.25;;;18.15;55.96
23281;BME280;11809;56.390;-3.266;2022-09-17T15:52:47;101685.38;;;18.27;55.62
23281;BME280;11809;56.390;-3.266;2022-09-17T15:55:34;101685.38;;;18.27;55.45
23281;BME280;11809;56.390;-3.266;2022-09-17T15:58:04;101678.09;;;18.30;55.42
23281;BME280;11809;56.390;-3.266;2022-09-17T16:00:44;101680.59;;;18.33;55.52
23281;BME280;11809;56.390;-3.266;2022-09-17T16:08:47;101686.75;;;18.34;55.12
23281;BME280;11809;56.390;-3.266;2022-09-17T16:11:18;101680.41;;;18.36;55.05
23281;BME280;11809;56.390;-3.266;2022-09-17T16:13:50;101680.31;;;18.38;55.40
23281;BME280;11809;56.390;-3.266;2022-09-17T16:16:36;101677.56;;;18.39;54.84
23281;BME280;11809;56.390;-3.266;2022-09-17T16:19:04;101680.06;;;18.42;55.24
23281;BME280;11809;56.390;-3.266;2022-09-17T16:21:34;101673.88;;;18.42;55.16
23281;BME280;11809;56.390;-3.266;2022-09-17T16:24:01;101681.03;;;18.41;54.95
23281;BME280;11809;56.390;-3.266;2022-09-17T16:26:30;101674.84;;;18.41;54.90
23281;BME280;11809;56.390;-3.266;2022-09-17T16:29:13;101671.19;;;18.42;54.83
23281;BME280;11809;56.390;-3.266;2022-09-17T16:31:40;101673.97;;;18.40;54.79